sensor_id;sensor_type;location;lat;lon;timestamp;P1;durP1;ratioP1;P2;durP2;ratioP2
2438;SDS011;14509;47.992;7.848;2023-03-21T00:00:23;1.73;;;1.60;;
2438;SDS011;14509;47.992;7.848;2023-03-21T00:02:25;2.70;;;1.40;;
2438;SDS011;14509;47.992;7.848;2023-03-21T00:04:27;2.57;;;1.47;;
2438;SDS011;14509;47.992;7.848;2023-03-21T00:06:29;1.43;;;1.33;;
2438;SDS011;14509;47.992;7.848;2023-03-21T00:08:31;2.03;;;1.80;;
2438;SDS011;14509;47.992;7.848;2023-03-21T00:10:35;2.90;;;2.27;;
2438;SDS011;14509;47.992;7.848;2023-03-21T00:12:37;4.53;;;2.17;;
2438;SDS011;14509;47.992;7.848;2023-03-21T00:14:39;2.03;;;1.83;;
2438;SDS011;14509;47.992;7.848;2023-03-21T00:16:41;2.53;;;1.50;;
2438;SDS011;14509;47.992;7.848;2023-03-21T00:18:45;3.63;;;1.70;;
2438;SDS011;14509;47.992;7.848;2023-03-21T00:20:54;2.50;;;1.50;;
2438;SDS011;14509;47.992;7.848;2023-03-21T00:22:57;2.00;;;1.80;;
2438;SDS011;14509;47.992;7.848;2023-03-21T00:24:59;2.60;;;1.93;;
2438;SDS011;14509;47.992;7.848;2023-03-21T00:27:02;2.40;;;2.00;;
2438;SDS011;14509;47.992;7.848;2023-03-21T00:29:04;1.73;;;1.60;;
2438;SDS011;14509;47.992;7.848;2023-03-21T00:31:06;3.37;;;1.87;;
2438;SDS011;14509;47.992;7.848;2023-03-21T00:33:09;2.60;;;1.50;;
2438;SDS011;14509;47.992;7.848;2023-03-21T00:35:13;2.88;;;2.20;;
2438;SDS011;14509;47.992;7.848;2023-03-21T00:37:15;2.77;;;1.93;;
2438;SDS011;14509;47.992;7.848;2023-03-21T00:39:18;2.50;;;1.90;;
2438;SDS011;14509;47.992;7.848;2023-03-21T00:41:19;2.10;;;2.00;;
2438;SDS011;14509;47.992;7.848;2023-03-21T00:43:23;1.53;;;1.43;;
2438;SDS011;14509;47.992;7.848;2023-03-21T00:45:30;2.30;;;1.83;;
2438;SDS011;14509;47.992;7.848;2023-03-21T00:47:34;1.50;;;1.40;;
2438;SDS011;14509;47.992;7.848;2023-03-21T00:49:36;1.53;;;1.40;;
2438;SDS011;14509;47.992;7.848;2023-03-21T00:51:38;5.03;;;2.03;;
2438;SDS011;14509;47.992;7.848;2023-03-21T00:53:42;2.03;;;1.70;;
2438;SDS011;14509;47.992;7.848;2023-03-21T00:55:44;1.33;;;1.20;;
2438;SDS011;14509;47.992;7.848;2023-03-21T00:57:48;2.63;;;2.33;;
2438;SDS011;14509;47.992;7.848;2023-03-21T00:59:53;2.13;;;2.03;;
2438;SDS011;14509;47.992;7.848;2023-03-21T01:01:57;1.77;;;1.50;;
2438;SDS011;14509;47.992;7.848;2023-03-21T01:04:00;2.17;;;1.40;;
2438;SDS011;14509;47.992;7.848;2023-03-21T01:06:04;1.88;;;1.77;;
2438;SDS011;14509;47.992;7.848;2023-03-21T01:08:06;5.37;;;1.70;;
2438;SDS011;14509;47.992;7.848;2023-03-21T01:10:09;2.00;;;1.80;;
2438;SDS011;14509;47.992;7.848;2023-03-21T01:12:11;1.60;;;1.30;;
2438;SDS011;14509;47.992;7.848;2023-03-21T01:14:13;2.43;;;1.77;;
2438;SDS011;14509;47.992;7.848;2023-03-21T01:16:18;1.90;;;1.70;;
2438;SDS011;14509;47.992;7.848;2023-03-21T01:18:22;2.00;;;1.73;;
2438;SDS011;14509;47.992;7.848;2023-03-21T01:20:26;1.77;;;1.37;;
2438;SDS011;14509;47.992;7.848;2023-03-21T01:22:28;1.70;;;1.50;;
2438;SDS011;14509;47.992;7.848;2023-03-21T01:24:31;1.73;;;1.20;;
2438;SDS011;14509;47.992;7.848;2023-03-21T01:26:33;2.43;;;1.33;;
2438;SDS011;14509;47.992;7.848;2023-03-21T01:28:37;1.67;;;1.58;;
2438;SDS011;14509;47.992;7.848;2023-03-21T01:30:43;1.60;;;1.50;;
2438;SDS011;14509;47.992;7.848;2023-03-21T01:32:47;1.60;;;1.50;;
2438;SDS011;14509;47.992;7.848;2023-03-21T01:34:49;3.03;;;1.60;;
2438;SDS011;14509;47.992;7.848;2023-03-21T01:36:51;1.80;;;1.37;;
2438;SDS011;14509;47.992;7.848;2023-03-21T01:38:54;1.67;;;1.20;;
2438;SDS011;14509;47.992;7.848;2023-03-21T01:40:57;2.45;;;2.25;;
2438;SDS011;14509;47.992;7.848;2023-03-21T01:43:05;1.90;;;1.40;;
2438;SDS011;14509;47.992;7.848;2023-03-21T01:48:43;1.80;;;1.50;;
2438;SDS011;14509;47.992;7.848;2023-03-21T01:50:45;1.80;;;1.33;;
2438;SDS011;14509;47.992;7.848;2023-03-21T01:52:59;1.83;;;1.47;;
2438;SDS011;14509;47.992;7.848;2023-03-21T01:55:06;2.42;;;1.60;;
2438;SDS011;14509;47.992;7.848;2023-03-21T01:57:18;2.08;;;1.88;;
2438;SDS011;14509;47.992;7.848;2023-03-21T01:59:27;1.90;;;1.80;;
2438;SDS011;14509;47.992;7.848;2023-03-21T02:01:55;2.25;;;1.85;;
2438;SDS011;14509;47.992;7.848;2023-03-21T02:04:03;2.35;;;1.40;;
2438;SDS011;14509;47.992;7.848;2023-03-21T02:06:39;1.75;;;1.52;;
2438;SDS011;14509;47.992;7.848;2023-03-21T02:09:10;1.20;;;1.10;;
2438;SDS011;14509;47.992;7.848;2023-03-21T02:11:15;1.67;;;1.58;;
2438;SDS011;14509;47.992;7.848;2023-03-21T02:13:18;1.80;;;1.70;;
2438;SDS011;14509;47.992;7.848;2023-03-21T02:15:20;2.97;;;2.40;;
2438;SDS011;14509;47.992;7.848;2023-03-21T02:17:51;3.20;;;1.83;;
2438;SDS011;14509;47.992;7.848;2023-03-21T02:20:25;1.58;;;1.42;;
2438;SDS011;14509;47.992;7.848;2023-03-21T02:23:01;2.05;;;1.90;;
2438;SDS011;14509;47.992;7.848;2023-03-21T02:28:05;1.60;;;1.50;;
2438;SDS011;14509;47.992;7.848;2023-03-21T02:30:27;2.17;;;1.73;;
2438;SDS011;14509;47.992;7.848;2023-03-21T02:32:48;1.92;;;1.10;;
2438;SDS011;14509;47.992;7.848;2023-03-21T02:35:14;1.85;;;1.75;;
2438;SDS011;14509;47.992;7.848;2023-03-21T02:37:26;2.10;;;1.60;;
2438;SDS011;14509;47.992;7.848;2023-03-21T02:39:36;2.55;;;1.90;;
2438;SDS011;14509;47.992;7.848;2023-03-21T02:41:49;1.65;;;1.55;;
2438;SDS011;14509;47.992;7.848;2023-03-21T02:44:06;2.22;;;1.33;;
2438;SDS011;14509;47.992;7.848;2023-03-21T02:46:58;1.60;;;1.50;;
2438;SDS011;14509;47.992;7.848;2023-03-21T02:49:08;1.40;;;1.30;;
2438;SDS011;14509;47.992;7.848;2023-03-21T02:51:20;1.73;;;1.63;;
2438;SDS011;14509;47.992;7.848;2023-03-21T02:54:00;3.42;;;2.05;;
2438;SDS011;14509;47.992;7.848;2023-03-21T02:56:12;1.50;;;1.40;;
2438;SDS011;14509;47.992;7.848;2023-03-21T02:59:02;1.65;;;1.35;;
2438;SDS011;14509;47.992;7.848;2023-03-21T03:01:34;3.10;;;1.73;;
2438;SDS011;14509;47.992;7.848;2023-03-21T03:03:46;2.20;;;2.00;;
2438;SDS011;14509;47.992;7.848;2023-03-21T03:05:55;2.03;;;1.65;;
2438;SDS011;14509;47.992;7.848;2023-03-21T03:12:34;2.05;;;1.95;;
2438;SDS011;14509;47.992;7.848;2023-03-21T03:15:36;2.30;;;2.10;;
2438;SDS011;14509;47.992;7.848;2023-03-21T03:18:34;2.70;;;1.60;;
2438;SDS011;14509;47.992;7.848;2023-03-21T03:20:48;1.27;;;1.17;;
2438;SDS011;14509;47.992;7.848;2023-03-21T03:23:43;1.70;;;1.60;;
2438;SDS011;14509;47.992;7.848;2023-03-21T03:25:48;2.95;;;2.10;;
2438;SDS011;14509;47.992;7.848;2023-03-21T03:37:37;2.08;;;1.70;;
2438;SDS011;14509;47.992;7.848;2023-03-21T03:39:46;3.10;;;1.85;;
2438;SDS011;14509;47.992;7.848;2023-03-21T03:41:57;1.80;;;1.70;;
2438;SDS011;14509;47.992;7.848;2023-03-21T03:44:08;1.60;;;1.50;;
2438;SDS011;14509;47.992;7.848;2023-03-21T03:46:22;2.00;;;1.90;;
2438;SDS011;14509;47.992;7.848;2023-03-21T03:48:35;1.60;;;1.50;;
2438;SDS011;14509;47.992;7.848;2023-03-21T03:50:49;2.03;;;1.70;;
2438;SDS011;14509;47.992;7.848;2023-03-21T03:53:11;2.58;;;1.33;;
2438;SDS011;14509;47.992;7.848;2023-03-21T03:55:44;1.35;;;1.25;;
2438;SDS011;14509;47.992;7.848;2023-03-21T03:57:53;1.38;;;1.25;;
2438;SDS011;14509;47.992;7.848;2023-03-21T03:59:59;2.08;;;1.98;;
2438;SDS011;14509;47.992;7.848;2023-03-21T04:02:18;1.67;;;1.58;;
2438;SDS011;14509;47.992;7.848;2023-03-21T04:04:40;1.73;;;1.63;;
2438;SDS011;14509;47.992;7.848;2023-03-21T04:07:29;1.55;;;1.45;;
2438;SDS011;14509;47.992;7.848;2023-03-21T04:10:19;2.45;;;1.27;;
2438;SDS011;14509;47.992;7.848;2023-03-21T04:15:26;2.38;;;1.83;;
2438;SDS011;14509;47.992;7.848;2023-03-21T04:18:25;2.17;;;1.63;;
2438;SDS011;14509;47.992;7.848;2023-03-21T04:20:28;1.80;;;1.55;;
2438;SDS011;14509;47.992;7.848;2023-03-21T04:22:31;2.13;;;1.73;;
2438;SDS011;14509;47.992;7.848;2023-03-21T04:24:39;1.52;;;1.42;;
2438;SDS011;14509;47.992;7.848;2023-03-21T04:26:44;1.65;;;1.30;;
2438;SDS011;14509;47.992;7.848;2023-03-21T04:29:31;1.65;;;1.55;;
2438;SDS011;14509;47.992;7.848;2023-03-21T04:31:41;1.60;;;1.35;;
2438;SDS011;14509;47.992;7.848;2023-03-21T04:34:07;1.35;;;1.25;;
2438;SDS011;14509;47.992;7.848;2023-03-21T04:36:27;2.78;;;1.30;;
2438;SDS011;14509;47.992;7.848;2023-03-21T04:38:48;1.45;;;1.35;;
2438;SDS011;14509;47.992;7.848;2023-03-21T04:41:16;2.50;;;1.60;;
2438;SDS011;14509;47.992;7.848;2023-03-21T04:45:58;1.52;;;1.35;;
2438;SDS011;14509;47.992;7.848;2023-03-21T04:48:11;1.98;;;1.75;;
2438;SDS011;14509;47.992;7.848;2023-03-21T04:50:39;3.53;;;1.67;;
2438;SDS011;14509;47.992;7.848;2023-03-21T04:53:12;1.83;;;1.60;;
2438;SDS011;14509;47.992;7.848;2023-03-21T04:55:38;1.15;;;1.05;;
2438;SDS011;14509;47.992;7.848;2023-03-21T04:58:26;1.52;;;1.42;;
2438;SDS011;14509;47.992;7.848;2023-03-21T05:00:37;2.40;;;1.60;;
2438;SDS011;14509;47.992;7.848;2023-03-21T05:02:53;3.45;;;1.63;;
2438;SDS011;14509;47.992;7.848;2023-03-21T05:05:27;2.58;;;1.88;;
2438;SDS011;14509;47.992;7.848;2023-03-21T05:08:58;1.75;;;1.63;;
2438;SDS011;14509;47.992;7.848;2023-03-21T05:10:48;2.33;;;1.60;;
2438;SDS011;14509;47.992;7.848;2023-03-21T05:13:02;2.33;;;1.60;;
2438;SDS011;14509;47.992;7.848;2023-03-21T05:15:24;2.30;;;1.67;;
2438;SDS011;14509;47.992;7.848;2023-03-21T05:20:19;2.60;;;1.75;;
2438;SDS011;14509;47.992;7.848;2023-03-21T05:23:32;5.72;;;1.40;;
2438;SDS011;14509;47.992;7.848;2023-03-21T05:29:56;4.93;;;2.00;;
2438;SDS011;14509;47.992;7.848;2023-03-21T05:32:09;2.22;;;1.90;;
2438;SDS011;14509;47.992;7.848;2023-03-21T05:44:15;2.55;;;1.75;;
2438;SDS011;14509;47.992;7.848;2023-03-21T05:46:57;1.60;;;1.50;;
2438;SDS011;14509;47.992;7.848;2023-03-21T05:49:21;2.80;;;1.40;;
2438;SDS011;14509;47.992;7.848;2023-03-21T05:51:39;2.88;;;1.85;;
2438;SDS011;14509;47.992;7.848;2023-03-21T05:54:01;1.83;;;1.58;;
2438;SDS011;14509;47.992;7.848;2023-03-21T05:57:28;1.35;;;1.25;;
2438;SDS011;14509;47.992;7.848;2023-03-21T06:00:00;1.40;;;1.20;;
2438;SDS011;14509;47.992;7.848;2023-03-21T06:03:00;2.00;;;1.55;;
2438;SDS011;14509;47.992;7.848;2023-03-21T06:13:11;2.30;;;1.85;;
2438;SDS011;14509;47.992;7.848;2023-03-21T06:45:01;2.53;;;2.33;;
2438;SDS011;14509;47.992;7.848;2023-03-21T06:47:27;2.53;;;2.10;;
2438;SDS011;14509;47.992;7.848;2023-03-21T06:49:50;2.37;;;1.60;;
2438;SDS011;14509;47.992;7.848;2023-03-21T06:52:32;2.70;;;2.50;;
2438;SDS011;14509;47.992;7.848;2023-03-21T06:55:05;1.30;;;1.20;;
2438;SDS011;14509;47.992;7.848;2023-03-21T06:57:37;3.07;;;1.73;;
2438;SDS011;14509;47.992;7.848;2023-03-21T07:00:00;1.93;;;1.57;;
2438;SDS011;14509;47.992;7.848;2023-03-21T07:02:23;3.20;;;1.50;;
2438;SDS011;14509;47.992;7.848;2023-03-21T07:08:20;1.90;;;1.50;;
2438;SDS011;14509;47.992;7.848;2023-03-21T07:11:03;1.60;;;1.50;;
2438;SDS011;14509;47.992;7.848;2023-03-21T07:13:49;1.90;;;1.70;;
2438;SDS011;14509;47.992;7.848;2023-03-21T07:17:16;3.13;;;2.20;;
2438;SDS011;14509;47.992;7.848;2023-03-21T07:20:54;1.73;;;1.53;;
2438;SDS011;14509;47.992;7.848;2023-03-21T07:23:03;2.33;;;2.10;;
2438;SDS011;14509;47.992;7.848;2023-03-21T07:26:03;1.97;;;1.77;;
2438;SDS011;14509;47.992;7.848;2023-03-21T08:46:58;2.93;;;2.20;;
2438;SDS011;14509;47.992;7.848;2023-03-21T08:49:00;4.70;;;2.93;;
2438;SDS011;14509;47.992;7.848;2023-03-21T08:51:02;4.67;;;3.00;;
2438;SDS011;14509;47.992;7.848;2023-03-21T08:53:05;4.27;;;3.00;;
2438;SDS011;14509;47.992;7.848;2023-03-21T08:55:07;4.83;;;2.63;;
2438;SDS011;14509;47.992;7.848;2023-03-21T08:57:11;3.63;;;3.20;;
2438;SDS011;14509;47.992;7.848;2023-03-21T08:59:13;4.17;;;3.33;;
2438;SDS011;14509;47.992;7.848;2023-03-21T09:01:15;3.23;;;2.93;;
2438;SDS011;14509;47.992;7.848;2023-03-21T09:03:19;3.97;;;3.67;;
2438;SDS011;14509;47.992;7.848;2023-03-21T09:05:21;5.40;;;4.90;;
2438;SDS011;14509;47.992;7.848;2023-03-21T09:07:24;4.30;;;3.50;;
2438;SDS011;14509;47.992;7.848;2023-03-21T09:09:27;5.27;;;3.10;;
2438;SDS011;14509;47.992;7.848;2023-03-21T09:11:29;3.10;;;2.87;;
2438;SDS011;14509;47.992;7.848;2023-03-21T09:13:31;3.40;;;2.73;;
2438;SDS011;14509;47.992;7.848;2023-03-21T09:15:33;5.00;;;2.73;;
2438;SDS011;14509;47.992;7.848;2023-03-21T09:17:35;3.87;;;2.47;;
2438;SDS011;14509;47.992;7.848;2023-03-21T09:19:42;2.60;;;2.40;;
2438;SDS011;14509;47.992;7.848;2023-03-21T09:21:46;3.00;;;2.80;;
2438;SDS011;14509;47.992;7.848;2023-03-21T09:23:50;3.37;;;3.00;;
2438;SDS011;14509;47.992;7.848;2023-03-21T09:25:55;3.03;;;2.80;;
2438;SDS011;14509;47.992;7.848;2023-03-21T09:27:57;2.90;;;2.47;;
2438;SDS011;14509;47.992;7.848;2023-03-21T09:30:00;2.63;;;2.43;;
2438;SDS011;14509;47.992;7.848;2023-03-21T09:32:02;5.93;;;2.90;;
2438;SDS011;14509;47.992;7.848;2023-03-21T09:34:05;2.50;;;2.17;;
2438;SDS011;14509;47.992;7.848;2023-03-21T09:36:09;2.40;;;2.10;;
2438;SDS011;14509;47.992;7.848;2023-03-21T09:38:13;2.10;;;1.80;;
2438;SDS011;14509;47.992;7.848;2023-03-21T09:40:16;2.53;;;2.13;;
2438;SDS011;14509;47.992;7.848;2023-03-21T09:42:24;5.30;;;1.63;;
2438;SDS011;14509;47.992;7.848;2023-03-21T09:44:37;3.50;;;2.40;;
2438;SDS011;14509;47.992;7.848;2023-03-21T09:46:49;2.70;;;1.80;;
2438;SDS011;14509;47.992;7.848;2023-03-21T09:48:57;4.20;;;2.30;;
2438;SDS011;14509;47.992;7.848;2023-03-21T09:51:05;2.50;;;1.70;;
2438;SDS011;14509;47.992;7.848;2023-03-21T09:53:17;3.83;;;2.10;;
2438;SDS011;14509;47.992;7.848;2023-03-21T09:55:24;2.20;;;1.57;;
2438;SDS011;14509;47.992;7.848;2023-03-21T09:57:30;2.10;;;1.73;;
2438;SDS011;14509;47.992;7.848;2023-03-21T09:59:37;1.60;;;1.50;;
2438;SDS011;14509;47.992;7.848;2023-03-21T10:01:42;5.77;;;2.03;;
2438;SDS011;14509;47.992;7.848;2023-03-21T10:03:48;4.57;;;2.37;;
2438;SDS011;14509;47.992;7.848;2023-03-21T10:05:50;3.30;;;1.63;;
2438;SDS011;14509;47.992;7.848;2023-03-21T10:07:58;2.50;;;1.87;;
2438;SDS011;14509;47.992;7.848;2023-03-21T10:10:05;2.27;;;1.70;;
2438;SDS011;14509;47.992;7.848;2023-03-21T10:12:11;4.00;;;2.23;;
2438;SDS011;14509;47.992;7.848;2023-03-21T10:14:17;3.00;;;1.73;;
2438;SDS011;14509;47.992;7.848;2023-03-21T10:16:25;6.30;;;2.60;;
2438;SDS011;14509;47.992;7.848;2023-03-21T10:18:30;2.27;;;1.90;;
2438;SDS011;14509;47.992;7.848;2023-03-21T10:20:33;2.43;;;1.57;;
2438;SDS011;14509;47.992;7.848;2023-03-21T10:22:36;3.80;;;1.87;;
2438;SDS011;14509;47.992;7.848;2023-03-21T10:24:40;5.03;;;2.60;;
2438;SDS011;14509;47.992;7.848;2023-03-21T10:26:42;3.53;;;2.00;;
2438;SDS011;14509;47.992;7.848;2023-03-21T10:28:45;2.10;;;1.90;;
2438;SDS011;14509;47.992;7.848;2023-03-21T10:30:49;2.10;;;1.80;;
2438;SDS011;14509;47.992;7.848;2023-03-21T10:32:53;2.20;;;2.00;;
2438;SDS011;14509;47.992;7.848;2023-03-21T10:34:58;3.50;;;1.50;;
2438;SDS011;14509;47.992;7.848;2023-03-21T10:37:03;2.40;;;2.20;;
2438;SDS011;14509;47.992;7.848;2023-03-21T10:39:07;2.07;;;1.87;;
2438;SDS011;14509;47.992;7.848;2023-03-21T10:41:21;4.47;;;2.40;;
2438;SDS011;14509;47.992;7.848;2023-03-21T10:43:30;2.70;;;1.63;;
2438;SDS011;14509;47.992;7.848;2023-03-21T10:45:36;2.03;;;1.60;;
2438;SDS011;14509;47.992;7.848;2023-03-21T10:47:38;2.20;;;1.60;;
2438;SDS011;14509;47.992;7.848;2023-03-21T10:49:41;2.30;;;2.00;;
2438;SDS011;14509;47.992;7.848;2023-03-21T10:51:43;3.50;;;1.80;;
2438;SDS011;14509;47.992;7.848;2023-03-21T10:53:49;2.20;;;1.90;;
2438;SDS011;14509;47.992;7.848;2023-03-21T10:55:54;2.93;;;2.20;;
2438;SDS011;14509;47.992;7.848;2023-03-21T10:58:01;4.10;;;2.17;;
2438;SDS011;14509;47.992;7.848;2023-03-21T11:00:09;2.93;;;2.30;;
2438;SDS011;14509;47.992;7.848;2023-03-21T11:02:20;4.30;;;2.20;;
2438;SDS011;14509;47.992;7.848;2023-03-21T11:04:26;2.40;;;2.20;;
2438;SDS011;14509;47.992;7.848;2023-03-21T11:06:30;3.07;;;2.30;;
2438;SDS011;14509;47.992;7.848;2023-03-21T11:08:37;2.17;;;1.97;;
2438;SDS011;14509;47.992;7.848;2023-03-21T11:10:47;2.80;;;1.60;;
2438;SDS011;14509;47.992;7.848;2023-03-21T11:12:53;2.20;;;1.90;;
2438;SDS011;14509;47.992;7.848;2023-03-21T11:14:59;6.80;;;1.80;;
2438;SDS011;14509;47.992;7.848;2023-03-21T11:17:26;6.37;;;2.60;;
2438;SDS011;14509;47.992;7.848;2023-03-21T11:19:31;3.10;;;2.17;;
2438;SDS011;14509;47.992;7.848;2023-03-21T11:21:35;2.43;;;2.23;;
2438;SDS011;14509;47.992;7.848;2023-03-21T11:23:39;2.10;;;1.90;;
2438;SDS011;14509;47.992;7.848;2023-03-21T11:25:46;3.43;;;1.93;;
2438;SDS011;14509;47.992;7.848;2023-03-21T11:27:50;2.33;;;2.00;;
2438;SDS011;14509;47.992;7.848;2023-03-21T11:29:55;2.87;;;2.57;;
2438;SDS011;14509;47.992;7.848;2023-03-21T11:32:01;3.03;;;2.23;;
2438;SDS011;14509;47.992;7.848;2023-03-21T11:34:19;2.50;;;2.30;;
2438;SDS011;14509;47.992;7.848;2023-03-21T11:36:30;2.73;;;2.30;;
2438;SDS011;14509;47.992;7.848;2023-03-21T11:38:38;2.30;;;2.10;;
2438;SDS011;14509;47.992;7.848;2023-03-21T11:40:40;3.57;;;1.90;;
2438;SDS011;14509;47.992;7.848;2023-03-21T11:42:54;3.53;;;1.90;;
2438;SDS011;14509;47.992;7.848;2023-03-21T11:44:59;1.93;;;1.70;;
2438;SDS011;14509;47.992;7.848;2023-03-21T11:47:07;2.83;;;2.27;;
2438;SDS011;14509;47.992;7.848;2023-03-21T11:49:10;3.00;;;2.43;;
2438;SDS011;14509;47.992;7.848;2023-03-21T11:51:18;2.47;;;2.27;;
2438;SDS011;14509;47.992;7.848;2023-03-21T11:53:27;3.33;;;2.57;;
2438;SDS011;14509;47.992;7.848;2023-03-21T11:55:40;3.10;;;2.80;;
2438;SDS011;14509;47.992;7.848;2023-03-21T11:57:58;3.30;;;2.50;;
2438;SDS011;14509;47.992;7.848;2023-03-21T12:00:10;3.33;;;2.13;;
2438;SDS011;14509;47.992;7.848;2023-03-21T12:02:23;2.57;;;2.37;;
2438;SDS011;14509;47.992;7.848;2023-03-21T12:04:38;4.70;;;3.10;;
2438;SDS011;14509;47.992;7.848;2023-03-21T12:06:42;2.83;;;2.63;;
2438;SDS011;14509;47.992;7.848;2023-03-21T12:08:55;4.63;;;2.80;;
2438;SDS011;14509;47.992;7.848;2023-03-21T12:11:06;3.83;;;3.53;;
2438;SDS011;14509;47.992;7.848;2023-03-21T12:13:19;4.70;;;3.83;;
2438;SDS011;14509;47.992;7.848;2023-03-21T12:15:35;3.30;;;3.00;;
2438;SDS011;14509;47.992;7.848;2023-03-21T12:17:48;3.53;;;3.30;;
2438;SDS011;14509;47.992;7.848;2023-03-21T12:20:10;2.50;;;2.30;;
2438;SDS011;14509;47.992;7.848;2023-03-21T12:22:21;3.00;;;2.80;;
2438;SDS011;14509;47.992;7.848;2023-03-21T12:24:30;2.60;;;2.40;;
2438;SDS011;14509;47.992;7.848;2023-03-21T12:26:40;3.80;;;2.00;;
2438;SDS011;14509;47.992;7.848;2023-03-21T12:28:50;2.57;;;2.37;;
2438;SDS011;14509;47.992;7.848;2023-03-21T12:31:07;2.63;;;2.43;;
2438;SDS011;14509;47.992;7.848;2023-03-21T12:33:31;3.70;;;2.20;;
2438;SDS011;14509;47.992;7.848;2023-03-21T12:35:46;1.90;;;1.70;;
2438;SDS011;14509;47.992;7.848;2023-03-21T12:37:56;9.80;;;2.67;;
2438;SDS011;14509;47.992;7.848;2023-03-21T12:40:09;1.70;;;1.60;;
2438;SDS011;14509;47.992;7.848;2023-03-21T12:42:27;3.00;;;1.70;;
2438;SDS011;14509;47.992;7.848;2023-03-21T12:44:42;3.60;;;2.00;;
2438;SDS011;14509;47.992;7.848;2023-03-21T12:46:49;4.00;;;2.37;;
2438;SDS011;14509;47.992;7.848;2023-03-21T12:48:56;2.03;;;1.50;;
2438;SDS011;14509;47.992;7.848;2023-03-21T12:51:02;2.27;;;1.10;;
2438;SDS011;14509;47.992;7.848;2023-03-21T12:53:26;1.50;;;1.40;;
2438;SDS011;14509;47.992;7.848;2023-03-21T12:55:35;1.47;;;1.13;;
2438;SDS011;14509;47.992;7.848;2023-03-21T12:57:39;1.43;;;0.90;;
2438;SDS011;14509;47.992;7.848;2023-03-21T12:59:47;1.23;;;0.87;;
2438;SDS011;14509;47.992;7.848;2023-03-21T13:01:55;0.93;;;0.80;;
2438;SDS011;14509;47.992;7.848;2023-03-21T13:04:20;0.70;;;0.57;;
2438;SDS011;14509;47.992;7.848;2023-03-21T13:06:34;0.80;;;0.80;;
2438;SDS011;14509;47.992;7.848;2023-03-21T13:08:38;0.90;;;0.50;;
2438;SDS011;14509;47.992;7.848;2023-03-21T13:10:46;1.20;;;0.90;;
2438;SDS011;14509;47.992;7.848;2023-03-21T13:12:53;0.60;;;0.47;;
2438;SDS011;14509;47.992;7.848;2023-03-21T13:15:06;2.87;;;0.97;;
2438;SDS011;14509;47.992;7.848;2023-03-21T13:17:30;1.20;;;0.80;;
2438;SDS011;14509;47.992;7.848;2023-03-21T13:19:39;1.37;;;0.83;;
2438;SDS011;14509;47.992;7.848;2023-03-21T13:21:49;1.47;;;0.67;;
2438;SDS011;14509;47.992;7.848;2023-03-21T13:23:58;1.13;;;0.70;;
2438;SDS011;14509;47.992;7.848;2023-03-21T13:26:02;1.37;;;0.73;;
2438;SDS011;14509;47.992;7.848;2023-03-21T13:28:12;1.20;;;1.10;;
2438;SDS011;14509;47.992;7.848;2023-03-21T13:30:19;1.40;;;0.90;;
2438;SDS011;14509;47.992;7.848;2023-03-21T13:32:27;0.93;;;0.83;;
2438;SDS011;14509;47.992;7.848;2023-03-21T13:34:31;0.93;;;0.70;;
2438;SDS011;14509;47.992;7.848;2023-03-21T13:36:35;0.90;;;0.80;;
2438;SDS011;14509;47.992;7.848;2023-03-21T13:38:38;1.10;;;0.80;;
2438;SDS011;14509;47.992;7.848;2023-03-21T13:40:42;1.40;;;0.70;;
2438;SDS011;14509;47.992;7.848;2023-03-21T13:42:49;1.57;;;1.23;;
2438;SDS011;14509;47.992;7.848;2023-03-21T13:44:54;0.80;;;0.70;;
2438;SDS011;14509;47.992;7.848;2023-03-21T13:46:59;2.70;;;0.93;;
2438;SDS011;14509;47.992;7.848;2023-03-21T13:49:11;4.33;;;1.10;;
2438;SDS011;14509;47.992;7.848;2023-03-21T13:51:16;1.80;;;0.90;;
2438;SDS011;14509;47.992;7.848;2023-03-21T13:53:39;4.70;;;1.37;;
2438;SDS011;14509;47.992;7.848;2023-03-21T13:55:44;1.73;;;0.70;;
2438;SDS011;14509;47.992;7.848;2023-03-21T13:57:47;1.10;;;1.00;;
2438;SDS011;14509;47.992;7.848;2023-03-21T13:59:51;1.17;;;0.90;;
2438;SDS011;14509;47.992;7.848;2023-03-21T14:02:23;1.00;;;0.90;;
2438;SDS011;14509;47.992;7.848;2023-03-21T14:04:30;1.10;;;1.00;;
2438;SDS011;14509;47.992;7.848;2023-03-21T14:06:34;0.77;;;0.77;;
2438;SDS011;14509;47.992;7.848;2023-03-21T14:08:42;1.17;;;0.93;;
2438;SDS011;14509;47.992;7.848;2023-03-21T14:10:47;1.20;;;0.80;;
2438;SDS011;14509;47.992;7.848;2023-03-21T14:12:54;1.33;;;1.23;;
2438;SDS011;14509;47.992;7.848;2023-03-21T14:14:59;1.07;;;0.83;;
2438;SDS011;14509;47.992;7.848;2023-03-21T14:17:10;0.90;;;0.87;;
2438;SDS011;14509;47.992;7.848;2023-03-21T14:19:13;1.30;;;1.10;;
2438;SDS011;14509;47.992;7.848;2023-03-21T14:21:16;0.97;;;0.80;;
2438;SDS011;14509;47.992;7.848;2023-03-21T14:23:20;1.60;;;0.93;;
2438;SDS011;14509;47.992;7.848;2023-03-21T14:25:24;0.90;;;0.87;;
2438;SDS011;14509;47.992;7.848;2023-03-21T14:27:33;1.80;;;0.83;;
2438;SDS011;14509;47.992;7.848;2023-03-21T14:29:37;2.20;;;1.00;;
2438;SDS011;14509;47.992;7.848;2023-03-21T14:31:41;1.47;;;1.13;;
2438;SDS011;14509;47.992;7.848;2023-03-21T14:33:46;1.67;;;0.90;;
2438;SDS011;14509;47.992;7.848;2023-03-21T14:35:51;1.43;;;1.27;;
2438;SDS011;14509;47.992;7.848;2023-03-21T14:37:58;0.80;;;0.80;;
2438;SDS011;14509;47.992;7.848;2023-03-21T14:40:02;1.50;;;1.00;;
2438;SDS011;14509;47.992;7.848;2023-03-21T14:42:10;1.07;;;0.97;;
2438;SDS011;14509;47.992;7.848;2023-03-21T14:44:15;1.33;;;1.23;;
2438;SDS011;14509;47.992;7.848;2023-03-21T14:46:25;1.17;;;1.07;;
2438;SDS011;14509;47.992;7.848;2023-03-21T14:48:28;2.50;;;1.23;;
2438;SDS011;14509;47.992;7.848;2023-03-21T14:50:33;3.97;;;1.37;;
2438;SDS011;14509;47.992;7.848;2023-03-21T14:52:42;3.30;;;1.80;;
2438;SDS011;14509;47.992;7.848;2023-03-21T14:54:45;3.77;;;2.30;;
2438;SDS011;14509;47.992;7.848;2023-03-21T14:56:49;3.80;;;2.20;;
2438;SDS011;14509;47.992;7.848;2023-03-21T14:58:54;1.60;;;1.50;;
2438;SDS011;14509;47.992;7.848;2023-03-21T15:00:57;2.20;;;1.30;;
2438;SDS011;14509;47.992;7.848;2023-03-21T15:03:03;1.30;;;1.00;;
2438;SDS011;14509;47.992;7.848;2023-03-21T15:05:06;2.23;;;1.40;;
2438;SDS011;14509;47.992;7.848;2023-03-21T15:07:22;3.80;;;1.40;;
2438;SDS011;14509;47.992;7.848;2023-03-21T15:09:27;1.67;;;1.00;;
2438;SDS011;14509;47.992;7.848;2023-03-21T15:11:30;4.10;;;1.40;;
2438;SDS011;14509;47.992;7.848;2023-03-21T15:13:36;2.03;;;1.30;;
2438;SDS011;14509;47.992;7.848;2023-03-21T15:15:46;1.30;;;1.10;;
2438;SDS011;14509;47.992;7.848;2023-03-21T15:17:48;1.40;;;1.23;;
2438;SDS011;14509;47.992;7.848;2023-03-21T15:19:54;1.23;;;1.07;;
2438;SDS011;14509;47.992;7.848;2023-03-21T15:21:57;1.30;;;1.20;;
2438;SDS011;14509;47.992;7.848;2023-03-21T15:24:05;1.30;;;1.20;;
2438;SDS011;14509;47.992;7.848;2023-03-21T15:26:15;1.43;;;1.10;;
2438;SDS011;14509;47.992;7.848;2023-03-21T15:28:18;0.97;;;0.90;;
2438;SDS011;14509;47.992;7.848;2023-03-21T15:30:21;1.97;;;0.87;;
2438;SDS011;14509;47.992;7.848;2023-03-21T15:32:28;2.13;;;1.27;;
2438;SDS011;14509;47.992;7.848;2023-03-21T15:34:30;2.10;;;1.10;;
2438;SDS011;14509;47.992;7.848;2023-03-21T15:36:33;2.43;;;1.67;;
2438;SDS011;14509;47.992;7.848;2023-03-21T15:38:37;2.47;;;1.17;;
2438;SDS011;14509;47.992;7.848;2023-03-21T15:40:44;1.10;;;1.00;;
2438;SDS011;14509;47.992;7.848;2023-03-21T15:42:46;1.60;;;1.50;;
2438;SDS011;14509;47.992;7.848;2023-03-21T15:44:48;1.13;;;1.03;;
2438;SDS011;14509;47.992;7.848;2023-03-21T15:46:54;1.13;;;1.03;;
2438;SDS011;14509;47.992;7.848;2023-03-21T15:49:06;1.43;;;1.33;;
2438;SDS011;14509;47.992;7.848;2023-03-21T15:51:12;1.37;;;1.27;;
2438;SDS011;14509;47.992;7.848;2023-03-21T15:53:20;1.77;;;0.97;;
2438;SDS011;14509;47.992;7.848;2023-03-21T15:55:26;1.03;;;0.93;;
2438;SDS011;14509;47.992;7.848;2023-03-21T15:58:16;1.03;;;0.93;;
2438;SDS011;14509;47.992;7.848;2023-03-21T16:03:01;1.20;;;0.90;;
2438;SDS011;14509;47.992;7.848;2023-03-21T16:05:21;1.03;;;0.73;;
2438;SDS011;14509;47.992;7.848;2023-03-21T16:07:34;1.93;;;0.93;;
2438;SDS011;14509;47.992;7.848;2023-03-21T16:09:48;1.33;;;1.10;;
2438;SDS011;14509;47.992;7.848;2023-03-21T16:12:09;1.43;;;1.30;;